• Join FlightAware (Why Join?)
  • Login
  • US Flag 
06:44AM EDT


 

Airport Tracker/Info


-or-


 

Live Flight TrackerFlight Track Log ✈ SWA2624 ✈ 07-Jun-2013 ✈ KSEA - KPHX

Flight Track Log - Related Links

Times and Time Zones

All times are in EDT time to prevent confusion due to time zone crossing. See the SWA2624 flight status page for this flight to view local times or setup timezone preferences in your user account.

Time Position Orientation Groundspeed Altitude Reporting Facility
EDT Latitude Longitude Course Direction KTS MPH feet Rate Location/Type
09:20AM 47.4417 -122.3100 179° South 147 169 1,200  Level Seattle Center
09:20AM 47.4114 -122.3094 179° South 154 177 2,800 2,280 Climbing Seattle Center
09:22AM 47.3531 -122.3089 180° South 208 239 5,200 2,640 Climbing Seattle Center
09:22AM 47.3219 -122.3106 182° South 265 305 6,300 4,200 Climbing Seattle Center
09:23AM 47.2692 -122.3086 179° South 278 320 9,400 3,840 Climbing Seattle Center
09:24AM 47.1811 -122.2925 173° South 328 377 12,900 2,820 Climbing Seattle Center
09:25AM 47.0864 -122.2689 170° South 346 398 15,100 1,260 Climbing Seattle Center
09:26AM 46.9928 -122.2111 157° South 366 421 15,500 1,440 Climbing Seattle Center
09:27AM 46.9019 -122.1569 158° South 375 432 18,100 2,520 Climbing Seattle Center
09:28AM 46.8075 -122.0642 146° Southeast 409 471 20,700 2,580 Climbing Seattle Center
09:29AM 46.7114 -121.9542 142° Southeast 436 502 23,400 2,640 Climbing Seattle Center
09:30AM 46.6117 -121.8403 142° Southeast 454 522 26,100 2,400 Climbing Seattle Center
09:31AM 46.5103 -121.7253 142° Southeast 466 536 28,400 1,980 Climbing Seattle Center
09:32AM 46.4053 -121.6050 142° Southeast 480 552 30,200 1,740 Climbing Seattle Center
09:33AM 46.2908 -121.4769 142° Southeast 503 579 32,000 1,800 Climbing Seattle Center
09:34AM 46.1764 -121.3511 143° Southeast 513 590 33,900 2,160 Climbing Seattle Center
09:35AM 46.0628 -121.2261 143° Southeast 516 594 36,400 1,920 Climbing Seattle Center
09:36AM 45.9528 -121.1031 142° Southeast 505 581 37,800 1,200 Climbing Seattle Center
09:37AM 45.8394 -120.9794 143° Southeast 511 588 38,900 1,440 Climbing Seattle Center
09:38AM 45.7039 -120.8314 143° Southeast 512 589 40,800 1,020 Climbing Seattle Center
09:39AM 45.5944 -120.7117 143° Southeast 501 577 41,000 60 Climbing Seattle Center
09:40AM 45.4833 -120.5908 143° Southeast 501 577 41,000  Level Seattle Center
09:41AM 45.3722 -120.4733 143° Southeast 500 575 41,000  Level Seattle Center
09:42AM 45.2608 -120.3564 144° Southeast 499 574 41,000  Level Seattle Center
09:43AM 45.1511 -120.2375 143° Southeast 499 574 41,000  Level Seattle Center
09:44AM 45.0425 -120.1242 144° Southeast 493 567 41,000  Level Seattle Center
09:45AM 44.9358 -120.0086 143° Southeast 496 571 41,000  Level Seattle Center
09:46AM 44.8317 -119.9006 144° Southeast 494 568 41,000  Level Seattle Center
09:47AM 44.7003 -119.7656 144° Southeast 489 563 41,000  Level Seattle Center
09:48AM 44.5850 -119.6706 150° Southeast 484 557 41,000  Level Seattle Center
09:49AM 44.4628 -119.5944 156° South 482 555 41,000  Level Seattle Center
09:50AM 44.3400 -119.5186 156° South 483 556 41,000  Level Seattle Center
09:51AM 44.2178 -119.4428 156° South 482 555 41,000  Level Seattle Center
09:52AM 44.0956 -119.3678 156° South 480 552 41,000  Level Seattle Center
09:53AM 43.9742 -119.2925 156° South 481 554 41,000  Level Seattle Center
09:54AM 43.8519 -119.2200 157° South 479 551 41,000  Level Seattle Center
09:55AM 43.7319 -119.1431 155° Southeast 478 550 41,000  Level Seattle Center
09:56AM 43.6253 -119.0314 143° Southeast 484 557 41,000  Level Seattle Center
09:57AM 43.5203 -118.9189 142° Southeast 480 552 41,000  Level Seattle Center
09:58AM 43.4022 -118.7922 142° Southeast 483 556 41,000  Level Seattle Center
09:59AM 43.3014 -118.6836 142° Southeast 482 555 41,000  Level Seattle Center
10:00AM 43.2008 -118.5769 142° Southeast 481 554 41,000  Level Salt Lake Center
10:01AM 43.0961 -118.4664 142° Southeast 485 558 41,000  Level Salt Lake Center
10:02AM 42.9908 -118.3539 142° Southeast 483 556 41,000  Level Salt Lake Center
10:03AM 42.8853 -118.2428 142° Southeast 480 552 41,000  Level Salt Lake Center
10:04AM 42.7589 -118.1092 142° Southeast 489 563 41,000  Level Salt Lake Center
10:05AM 42.6581 -118.0028 142° Southeast 484 557 41,000  Level Salt Lake Center
10:06AM 42.5392 -117.8794 143° Southeast 483 556 41,000  Level Salt Lake Center
10:07AM 42.4361 -117.7722 142° Southeast 486 559 41,000  Level Salt Lake Center
10:08AM 42.3342 -117.6669 143° Southeast 484 557 41,000  Level Salt Lake Center
10:09AM 42.2131 -117.5444 143° Southeast 476 548 41,000  Level Salt Lake Center
10:10AM 42.1111 -117.4408 143° Southeast 477 549 41,000  Level Salt Lake Center
10:11AM 42.0083 -117.3339 142° Southeast 487 560 41,000  Level Salt Lake Center
10:12AM 41.8892 -117.2142 143° Southeast 478 550 41,000  Level Salt Lake Center
10:13AM 41.7869 -117.1097 143° Southeast 481 554 41,000  Level Salt Lake Center
10:14AM 41.6686 -116.9922 143° Southeast 474 545 41,000  Level Salt Lake Center
10:15AM 41.5661 -116.8900 143° Southeast 477 549 41,000  Level Salt Lake Center
10:16AM 41.4644 -116.7894 143° Southeast 475 547 41,000  Level Salt Lake Center
10:17AM 41.3461 -116.6719 143° Southeast 474 545 41,000  Level Salt Lake Center
10:18AM 41.2444 -116.5703 143° Southeast 475 547 41,000  Level Salt Lake Center
10:19AM 41.1253 -116.4542 144° Southeast 475 547 41,000  Level Salt Lake Center
10:20AM 41.0214 -116.3517 143° Southeast 479 551 41,000  Level Salt Lake Center
10:21AM 40.9167 -116.2486 143° Southeast 485 558 41,000  Level Salt Lake Center
10:22AM 40.7950 -116.1308 144° Southeast 483 556 41,000  Level Salt Lake Center
10:23AM 40.6925 -116.0319 144° Southeast 476 548 41,000  Level Salt Lake Center
10:24AM 40.5719 -115.9158 144° Southeast 477 549 41,000  Level Salt Lake Center
10:26AM 40.4692 -115.8178 144° Southeast 475 547 41,000  Level Salt Lake Center
10:27AM 40.3714 -115.7214 143° Southeast 465 535 41,000  Level Salt Lake Center
10:28AM 40.2525 -115.6081 144° Southeast 467 537 41,000  Level Salt Lake Center
10:29AM 40.1500 -115.5108 144° Southeast 471 542 41,000  Level Salt Lake Center
10:30AM 40.0306 -115.3994 144° Southeast 472 543 41,000  Level Salt Lake Center
10:31AM 39.9289 -115.3036 144° Southeast 470 541 41,000  Level Salt Lake Center
10:32AM 39.8269 -115.2083 144° Southeast 469 540 41,000  Level Salt Lake Center
10:33AM 39.7086 -115.0969 144° Southeast 470 541 41,000  Level Salt Lake Center
10:34AM 39.6053 -115.0028 145° Southeast 472 543 41,000  Level Salt Lake Center
10:35AM 39.4861 -114.8917 144° Southeast 472 543 41,000  Level Salt Lake Center
10:36AM 39.3806 -114.7992 146° Southeast 476 548 41,000  Level Salt Lake Center
10:37AM 39.2603 -114.6883 144° Southeast 476 548 41,000  Level Salt Lake Center
10:38AM 39.1658 -114.6008 144° Southeast 472 543 41,000  Level Salt Lake Center
10:39AM 39.0597 -114.5017 144° Southeast 473 544 41,000  Level Salt Lake Center
10:40AM 38.9311 -114.3856 145° Southeast 471 542 41,000  Level Salt Lake Center
10:41AM 38.8247 -114.2889 145° Southeast 470 541 41,000  Level Salt Lake Center
10:42AM 38.7167 -114.1931 145° Southeast 471 542 41,000  Level Salt Lake Center
10:43AM 38.6114 -114.0969 144° Southeast 469 540 41,000  Level Salt Lake Center
10:44AM 38.5036 -114.0019 145° Southeast 470 541 41,000  Level Salt Lake Center
10:45AM 38.3964 -113.9050 145° Southeast 472 543 41,000  Level Salt Lake Center
10:46AM 38.2675 -113.7931 146° Southeast 470 541 41,000  Level Salt Lake Center
10:47AM 38.1600 -113.6978 145° Southeast 470 541 41,000  Level Salt Lake Center
10:48AM 38.0514 -113.6075 147° Southeast 470 541 41,000 -120 Level Salt Lake Center
10:49AM 37.9453 -113.5133 145° Southeast 468 539 40,800 -600 Descending Salt Lake Center
10:50AM 37.8281 -113.4378 153° Southeast 476 548 39,800 -960 Descending Salt Lake Center
10:51AM 37.7114 -113.3672 154° Southeast 471 542 38,900 -1,020 Descending Salt Lake Center
10:52AM 37.6183 -113.3106 154° Southeast 471 542 38,100 -540 Descending Los Angeles Center
10:53AM 37.5050 -113.2408 154° Southeast 463 533 38,000 -180 Descending Los Angeles Center
10:54AM 37.4142 -113.1864 155° Southeast 460 529 37,800 -780 Descending Los Angeles Center
10:55AM 37.2294 -113.0742 154° Southeast 466 536 36,300 -1,080 Descending Los Angeles Center
10:56AM 37.1128 -113.0039 154° Southeast 467 537 35,400 -960 Descending Los Angeles Center
10:57AM 36.9956 -112.9344 155° Southeast 469 540 34,400 -1,020 Descending Los Angeles Center
10:58AM 36.8775 -112.8642 155° Southeast 471 542 33,400 -720 Descending Los Angeles Center
10:59AM 36.7594 -112.7947 155° Southeast 471 542 33,000 -240 Descending Los Angeles Center
11:00AM 36.6183 -112.7111 155° Southeast 468 539 33,000  Level Los Angeles Center
11:01AM 36.5000 -112.6428 155° Southeast 469 540 33,000  Level Los Angeles Center
11:02AM 36.3817 -112.5736 155° Southeast 470 541 33,000  Level Los Angeles Center
11:04AM 36.2633 -112.5053 155° Southeast 470 541 33,000 -360 Level Los Angeles Center
11:05AM 36.1361 -112.4669 166° South 473 544 32,300 -840 Descending Los Angeles Center
11:06AM 35.9781 -112.4622 179° South 472 543 31,200 -1,080 Descending Los Angeles Center
11:07AM 35.8422 -112.4578 178° South 464 534 30,100 -1,080 Descending Los Angeles Center
11:08AM 35.7133 -112.4525 178° South 463 533 29,000 -540 Descending Los Angeles Center
11:09AM 35.5853 -112.4456 177° South 461 531 29,000  Level Los Angeles Center
11:10AM 35.4331 -112.4403 178° South 454 522 29,000  Level Los Angeles Center
11:11AM 35.3056 -112.4189 172° South 457 526 29,000  Level Los Angeles Center
11:12AM 35.1794 -112.3883 169° South 457 526 29,000  Level Los Angeles Center
11:13AM 35.0556 -112.3600 169° South 451 519 29,000 -420 Level Los Angeles Center
11:14AM 34.9064 -112.3256 169° South 451 519 28,100 -900 Descending Albuquerque Center
11:15AM 34.7861 -112.2981 169° South 443 510 27,100 -1,020 Descending Albuquerque Center
11:16AM 34.6636 -112.2694 169° South 439 505 26,100 -1,200 Descending Albuquerque Center
11:17AM 34.5458 -112.2425 169° South 433 498 24,700 -2,040 Descending Albuquerque Center
11:18AM 34.4117 -112.2114 169° South 415 478 21,900 -2,460 Descending Albuquerque Center
11:19AM 34.3050 -112.1869 169° South 396 456 19,700 -2,280 Descending Albuquerque Center
11:20AM 34.2022 -112.1631 169° South 380 437 17,300 -1,800 Descending Albuquerque Center
11:21AM 34.1064 -112.1408 169° South 356 410 16,000 -1,260 Descending Albuquerque Center
11:22AM 34.0214 -112.1194 168° South 316 364 14,700 -1,500 Descending Albuquerque Center
11:24AM 33.9217 -112.0942 168° South 308 354 12,900 -1,620 Descending Albuquerque Center
11:25AM 33.8408 -112.0736 168° South 303 349 11,400 -1,440 Descending Albuquerque Center
11:26AM 33.7597 -112.0536 168° South 301 346 10,000 -720 Descending Albuquerque Center
11:27AM 33.6775 -112.0389 172° South 301 346 10,000  Level Albuquerque Center
11:28AM 33.5944 -112.0244 172° South 302 348 10,000 -120 Level Albuquerque Center
11:29AM 33.5103 -112.0250 180° South 304 350 9,800 -1,200 Descending Albuquerque Center
11:30AM 33.4000 -112.0333 184° South 301 346 7,500 -1,440 Descending Phoenix TRACON
11:31AM 33.3383 -112.0064 160° South 282 325 6,900 -600 Descending Albuquerque Center
11:32AM 33.3342 -111.9319 94° East 229 264 6,400 -900 Descending Albuquerque Center
11:33AM 33.3358 -111.8614 88° East 216 249 5,100 -1,200 Descending Albuquerque Center
11:34AM 33.3733 -111.8169 45° Northeast 225 259 4,000 -900 Descending Albuquerque Center
11:35AM 33.4194 -111.8611 321° Northwest 207 238 3,300 -780 Descending Albuquerque Center
11:36AM 33.4333 -111.9167 287° West 195 224 2,500 -960 Descending Phoenix TRACON
11:37AM 33.4333 -111.9667 270° West 158 182 1,500 -1,020 Descending Phoenix TRACON